Weather at Chicago O'Hare International Airport

Public forecast

Using degrees Fahrenheit for public forecast. Weather courtesy of forecast.io.

Current aviation weather report (METAR) for Chicago O'Hare International Airport

Retrieved 2022/05/19 08:51 UTC (20 minutes ago):

KORD 190851Z 08006KT 3SM BR BKN017 OVC090 13/12 A2973 RMK AO2 SLP069 T01330117 53001

Aviation forecast (TAF) for Chicago O'Hare International Airport

Retrieved 2022/05/19 06:22 UTC (3 hours ago):

TAF KORD 190520Z 1906/2012 23008KT P6SM FEW050 SCT250 TEMPO 1906/1910 5SM BR FM191900 20013G21KT P6SM FEW050 FEW250 FM200000 18011G17KT P6SM FEW250